createdAt,value
2018-11-20T00:02:49.811Z,2.20
2018-11-20T00:05:37.580Z,2.15
2018-11-20T00:08:25.335Z,1.98
2018-11-20T00:11:22.096Z,2.22
2018-11-20T00:14:08.365Z,1.95
2018-11-20T00:17:02.115Z,2.08
2018-11-20T00:19:44.792Z,2.20
2018-11-20T00:22:31.019Z,2.10
2018-11-20T00:25:17.430Z,2.45
2018-11-20T00:28:05.177Z,2.20
2018-11-20T00:30:58.978Z,2.67
2018-11-20T00:33:52.608Z,2.20
2018-11-20T00:36:39.028Z,2.42
2018-11-20T00:39:29.304Z,2.12
2018-11-20T00:42:15.821Z,2.40
2018-11-20T00:45:02.146Z,2.72
2018-11-20T00:47:41.508Z,2.58
2018-11-20T00:50:26.656Z,2.20
2018-11-20T00:53:08.995Z,2.60
2018-11-20T00:56:33.029Z,2.40
2018-11-20T00:59:24.754Z,2.30
2018-11-20T01:02:15.798Z,2.42
2018-11-20T01:04:58.933Z,2.65
2018-11-20T01:08:04.903Z,2.40
2018-11-20T01:11:04.303Z,2.37
2018-11-20T01:13:50.742Z,2.60
2018-11-20T01:16:41.455Z,2.40
2018-11-20T01:19:32.037Z,2.50
2018-11-20T01:22:19.816Z,2.50
2018-11-20T01:25:11.745Z,2.33
2018-11-20T01:28:02.654Z,2.70
2018-11-20T01:30:56.297Z,2.70
2018-11-20T01:33:46.767Z,2.45
2018-11-20T01:36:33.598Z,2.50
2018-11-20T01:39:30.544Z,2.50
2018-11-20T01:42:27.517Z,2.40
2018-11-20T01:45:24.227Z,2.72
2018-11-20T01:48:10.555Z,2.42
2018-11-20T01:51:01.242Z,2.45
2018-11-20T01:53:54.781Z,2.62
2018-11-20T01:56:34.531Z,2.60
2018-11-20T01:59:14.003Z,2.58
2018-11-20T02:02:19.675Z,2.40
2018-11-20T02:05:19.421Z,2.70
2018-11-20T02:08:05.754Z,2.80
2018-11-20T02:10:52.001Z,2.58
2018-11-20T02:14:01.959Z,2.62
2018-11-20T02:17:01.780Z,2.65
2018-11-20T02:19:52.339Z,2.55
2018-11-20T02:22:38.809Z,2.30
2018-11-20T02:25:32.500Z,3.25
2018-11-20T02:28:18.967Z,2.77
2018-11-20T02:31:05.384Z,2.67
2018-11-20T02:33:59.352Z,2.60
2018-11-20T02:36:50.074Z,2.90
2018-11-20T02:39:43.618Z,2.50
2018-11-20T02:42:49.408Z,2.58
2018-11-20T02:45:36.198Z,2.60
2018-11-20T02:48:17.515Z,2.62
2018-11-20T02:51:08.729Z,2.67
2018-11-20T02:54:02.096Z,2.98
2018-11-20T02:56:50.093Z,2.83
2018-11-20T02:59:37.048Z,2.90
2018-11-20T03:02:30.908Z,3.27
2018-11-20T03:05:33.780Z,2.67
2018-11-20T03:08:20.085Z,2.65
2018-11-20T03:11:06.906Z,2.95
2018-11-20T03:14:03.607Z,2.72
2018-11-20T03:16:57.350Z,2.90
2018-11-20T03:19:54.555Z,2.70
2018-11-20T03:22:40.958Z,2.98
2018-11-20T03:25:55.675Z,2.85
2018-11-20T03:28:43.477Z,3.00
2018-11-20T03:31:30.042Z,2.83
2018-11-20T03:34:26.900Z,2.90
2018-11-20T03:37:13.435Z,2.75
2018-11-20T03:40:01.090Z,3.02
2018-11-20T03:42:48.831Z,2.80
2018-11-20T03:45:39.278Z,3.20
2018-11-20T03:48:25.654Z,3.12
2018-11-20T03:51:12.185Z,3.40
2018-11-20T03:53:58.387Z,3.20
2018-11-20T03:56:46.161Z,3.25
2018-11-20T03:59:33.973Z,3.55
2018-11-20T04:02:34.014Z,2.95
2018-11-20T04:05:30.538Z,3.70
2018-11-20T04:08:21.175Z,3.10
2018-11-20T04:11:11.832Z,3.60
2018-11-20T04:13:58.144Z,3.40
2018-11-20T04:16:50.862Z,3.40
2018-11-20T04:19:53.922Z,3.20
2018-11-20T04:22:40.813Z,3.45
2018-11-20T04:25:31.489Z,3.65
2018-11-20T04:28:17.745Z,3.75
2018-11-20T04:31:26.455Z,4.03
2018-11-20T04:34:29.309Z,3.65
2018-11-20T04:37:30.449Z,4.15
2018-11-20T04:40:16.058Z,4.25
2018-11-20T04:43:10.028Z,3.60
2018-11-20T04:45:50.064Z,3.77
2018-11-20T04:48:50.080Z,4.03
2018-11-20T04:51:44.301Z,3.98
2018-11-20T04:54:30.609Z,4.30
2018-11-20T04:57:24.382Z,4.50
2018-11-20T05:00:12.159Z,4.12
2018-11-20T05:02:55.416Z,4.03
2018-11-20T05:05:41.901Z,4.10
2018-11-20T05:08:29.644Z,4.25
2018-11-20T05:11:26.453Z,4.40
2018-11-20T05:14:20.087Z,4.58
2018-11-20T05:16:57.491Z,4.08
2018-11-20T05:19:54.397Z,4.17
2018-11-20T05:22:38.882Z,4.30
2018-11-20T05:25:26.597Z,4.42
2018-11-20T05:28:12.923Z,4.62
2018-11-20T05:30:59.307Z,4.90
2018-11-20T05:33:45.539Z,4.53
2018-11-20T05:36:31.800Z,4.65
2018-11-20T05:39:12.168Z,4.90
2018-11-20T05:41:52.830Z,4.80
2018-11-20T05:44:59.064Z,4.95
2018-11-20T05:47:49.318Z,4.83
2018-11-20T05:50:42.917Z,4.83
2018-11-20T05:53:33.607Z,4.90
2018-11-20T05:56:24.449Z,4.60
2018-11-20T05:59:10.727Z,4.87
2018-11-20T06:01:55.649Z,5.00
2018-11-20T06:06:12.993Z,5.00
2018-11-20T06:08:57.666Z,5.10
2018-11-20T06:11:45.772Z,5.42
2018-11-20T06:14:42.132Z,5.30
2018-11-20T06:17:36.302Z,5.53
2018-11-20T06:20:23.644Z,5.37
2018-11-20T06:23:11.457Z,5.12
2018-11-20T06:25:57.248Z,5.05
2018-11-20T06:28:35.712Z,5.12
2018-11-20T06:31:32.104Z,5.37
2018-11-20T06:34:18.027Z,5.08
2018-11-20T06:37:04.423Z,5.80
2018-11-20T06:39:45.679Z,5.08
2018-11-20T06:42:45.155Z,5.15
2018-11-20T06:45:24.312Z,6.03
2018-11-20T06:48:14.432Z,4.83
2018-11-20T06:51:20.158Z,5.12
2018-11-20T06:54:05.776Z,4.72
2018-11-20T06:57:29.818Z,5.40
2018-11-20T07:00:15.905Z,5.30
2018-11-20T07:02:56.194Z,5.00
2018-11-20T07:05:34.081Z,5.45
2018-11-20T07:08:20.628Z,5.15
2018-11-20T07:11:07.057Z,4.50
2018-11-20T07:13:57.158Z,4.35
2018-11-20T07:16:55.673Z,5.00
2018-11-20T07:19:45.816Z,4.87
2018-11-20T07:22:33.196Z,5.08
2018-11-20T07:25:18.240Z,5.17
2018-11-20T07:28:24.610Z,5.22
2018-11-20T07:31:30.581Z,5.62
2018-11-20T07:34:12.803Z,5.92
2018-11-20T07:36:59.044Z,5.72
2018-11-20T07:39:55.784Z,6.25
2018-11-20T07:42:50.118Z,5.83
2018-11-20T07:45:36.734Z,5.92
2018-11-20T07:48:23.534Z,5.60
2018-11-20T07:51:16.603Z,5.87
2018-11-20T07:54:16.294Z,5.55
2018-11-20T07:57:01.285Z,5.60
2018-11-20T07:59:48.787Z,5.95
2018-11-20T08:02:39.465Z,5.03
2018-11-20T08:05:28.193Z,5.80
2018-11-20T08:08:11.929Z,5.50
2018-11-20T08:10:51.649Z,6.42
2018-11-20T08:13:54.180Z,6.08
2018-11-20T08:16:43.993Z,5.50
2018-11-20T08:19:41.057Z,5.60
2018-11-20T08:22:26.445Z,5.58
2018-11-20T08:25:06.423Z,5.80
2018-11-20T08:27:50.735Z,4.95
2018-11-20T08:30:53.375Z,5.37
2018-11-20T08:33:37.910Z,5.28
2018-11-20T08:36:28.737Z,5.35
2018-11-20T08:39:22.220Z,5.50
2018-11-20T08:42:21.914Z,5.58
2018-11-20T08:45:09.642Z,4.90
2018-11-20T08:50:51.410Z,4.95
2018-11-20T08:53:36.648Z,5.67
2018-11-20T08:56:27.429Z,5.50
2018-11-20T08:59:14.974Z,4.78
2018-11-20T09:02:11.694Z,5.30
2018-11-20T09:05:02.378Z,5.22
2018-11-20T09:07:58.000Z,4.90
2018-11-20T09:11:00.898Z,4.85
2018-11-20T09:14:06.733Z,6.03
2018-11-20T09:17:06.282Z,5.50
2018-11-20T09:20:00.241Z,5.35
2018-11-20T09:22:42.984Z,5.72
2018-11-20T09:25:49.054Z,5.40
2018-11-20T09:28:35.142Z,5.45
2018-11-20T09:31:31.720Z,6.05
2018-11-20T09:34:28.458Z,5.75
2018-11-20T09:37:14.489Z,6.00
2018-11-20T09:40:14.976Z,4.95
2018-11-20T09:43:08.078Z,5.10
2018-11-20T09:46:21.650Z,5.37
2018-11-20T09:49:09.189Z,5.30
2018-11-20T09:51:53.038Z,5.70
2018-11-20T09:54:39.277Z,5.70
2018-11-20T09:57:29.516Z,5.65
2018-11-20T10:00:35.407Z,5.85
2018-11-20T10:03:13.790Z,5.45
2018-11-20T10:09:05.668Z,5.45
2018-11-20T10:11:47.623Z,5.37
2018-11-20T10:14:43.705Z,5.58
2018-11-20T10:17:40.272Z,5.75
2018-11-20T10:20:27.828Z,6.47
2018-11-20T10:23:27.616Z,6.75
2018-11-20T10:26:14.447Z,5.78
2018-11-20T10:29:01.819Z,5.87
2018-11-20T10:31:52.363Z,5.45
2018-11-20T10:34:42.916Z,5.12
2018-11-20T10:37:24.181Z,5.20
2018-11-20T10:40:08.299Z,5.37
2018-11-20T10:43:10.977Z,5.80
2018-11-20T10:45:58.504Z,5.97
2018-11-20T10:48:55.062Z,5.17
2018-11-20T10:51:27.532Z,5.80
2018-11-20T10:54:18.052Z,5.58
2018-11-20T10:57:03.916Z,5.83
2018-11-20T11:00:06.355Z,5.97
2018-11-20T11:02:52.850Z,6.25
2018-11-20T11:05:47.226Z,5.50
2018-11-20T11:08:33.342Z,5.28
2018-11-20T11:11:10.181Z,5.72
2018-11-20T11:13:55.651Z,5.45
2018-11-20T11:16:58.600Z,6.53
2018-11-20T11:19:45.271Z,6.35
2018-11-20T11:22:41.778Z,6.37
2018-11-20T11:25:27.906Z,6.00
2018-11-20T11:28:15.947Z,5.67
2018-11-20T11:31:02.506Z,5.92
2018-11-20T11:33:48.794Z,5.33
2018-11-20T11:36:35.136Z,4.97
2018-11-20T11:39:10.202Z,6.25
2018-11-20T11:41:56.749Z,6.05
2018-11-20T11:44:42.939Z,5.90
2018-11-20T11:47:29.300Z,5.65
2018-11-20T11:50:16.849Z,6.40
2018-11-20T11:52:56.216Z,5.83
2018-11-20T11:55:43.781Z,6.05
2018-11-20T11:58:37.047Z,5.78
2018-11-20T12:01:20.596Z,5.17
2018-11-20T12:04:11.256Z,5.90
2018-11-20T12:07:04.753Z,6.25
2018-11-20T12:09:51.028Z,6.25
2018-11-20T12:12:37.343Z,6.00
2018-11-20T12:15:24.831Z,6.00
2018-11-20T12:18:18.501Z,5.97
2018-11-20T12:21:09.031Z,6.17
2018-11-20T12:23:50.675Z,5.33
2018-11-20T12:26:41.192Z,5.55
2018-11-20T12:29:34.695Z,5.67
2018-11-20T12:32:34.333Z,6.55
2018-11-20T12:35:25.903Z,5.78
2018-11-20T12:38:24.672Z,6.03
2018-11-20T12:41:30.650Z,5.80
2018-11-20T12:44:21.535Z,6.15
2018-11-20T12:47:09.375Z,5.92
2018-11-20T12:49:59.494Z,6.22
2018-11-20T12:52:45.818Z,6.53
2018-11-20T12:55:33.554Z,6.30
2018-11-20T12:58:21.120Z,6.45
2018-11-20T13:01:18.143Z,6.53
2018-11-20T13:04:04.131Z,6.70
2018-11-20T13:06:51.650Z,5.83
2018-11-20T13:09:48.145Z,6.15
2018-11-20T13:12:35.663Z,5.85
2018-11-20T13:15:34.438Z,6.50
2018-11-20T13:18:24.942Z,6.15
2018-11-20T13:21:15.983Z,6.20
2018-11-20T13:24:11.645Z,6.30
2018-11-20T13:27:06.754Z,5.80
2018-11-20T13:29:52.905Z,5.97
2018-11-20T13:32:39.203Z,5.80
2018-11-20T13:35:25.366Z,6.37
2018-11-20T13:38:07.973Z,6.12
2018-11-20T13:41:31.139Z,6.85
2018-11-20T13:44:08.962Z,6.40
2018-11-20T13:46:56.565Z,6.72
2018-11-20T13:49:42.569Z,5.85
2018-11-20T13:52:36.036Z,6.22
2018-11-20T13:55:24.796Z,6.00
2018-11-20T13:58:11.211Z,6.50
2018-11-20T14:01:05.059Z,5.97
2018-11-20T14:04:05.447Z,6.28
2018-11-20T14:06:58.644Z,7.12
2018-11-20T14:09:47.346Z,6.42
2018-11-20T14:12:40.711Z,6.62
2018-11-20T14:15:27.281Z,7.00
2018-11-20T14:18:20.678Z,6.45
2018-11-20T14:21:06.885Z,6.20
2018-11-20T14:24:00.756Z,6.33
2018-11-20T14:26:54.456Z,6.80
2018-11-20T14:29:45.950Z,7.00
2018-11-20T14:32:33.499Z,6.50
2018-11-20T14:35:15.702Z,6.58
2018-11-20T14:38:03.239Z,6.35
2018-11-20T14:40:49.726Z,6.50
2018-11-20T14:43:37.323Z,6.95
2018-11-20T14:46:19.963Z,7.00
2018-11-20T14:49:07.562Z,6.90
2018-11-20T14:51:45.495Z,6.65
2018-11-20T14:54:26.449Z,6.83
2018-11-20T14:57:07.341Z,7.08
2018-11-20T14:59:57.768Z,6.55
2018-11-20T15:03:03.706Z,6.45
2018-11-20T15:05:50.906Z,6.72
2018-11-20T15:08:37.372Z,6.65
2018-11-20T15:11:21.050Z,6.67
2018-11-20T15:14:08.072Z,6.78
2018-11-20T15:16:54.521Z,6.50
2018-11-20T15:19:42.430Z,7.50
2018-11-20T15:22:21.317Z,6.58
2018-11-20T15:24:57.121Z,6.42
2018-11-20T15:27:50.803Z,6.35
2018-11-20T15:30:37.532Z,7.08
2018-11-20T15:33:23.635Z,6.85
2018-11-20T15:36:11.254Z,6.85
2018-11-20T15:38:50.014Z,7.42
2018-11-20T15:41:29.620Z,6.75
2018-11-20T15:44:29.430Z,7.20
2018-11-20T15:47:15.975Z,6.87
2018-11-20T15:49:57.559Z,7.47
2018-11-20T15:52:44.718Z,7.28
2018-11-20T15:55:30.479Z,7.62
2018-11-20T15:58:35.924Z,7.33
2018-11-20T16:01:23.128Z,7.30
2018-11-20T16:04:07.825Z,6.83
2018-11-20T16:07:01.543Z,7.00
2018-11-20T16:09:41.885Z,8.10
2018-11-20T16:12:28.290Z,8.00
2018-11-20T16:15:18.608Z,7.35
2018-11-20T16:18:12.334Z,7.33
2018-11-20T16:21:02.817Z,7.25
2018-11-20T16:23:53.078Z,7.05
2018-11-20T16:26:39.514Z,7.55
2018-11-20T16:29:27.138Z,7.45
2018-11-20T16:32:14.688Z,8.33
2018-11-20T16:35:01.007Z,8.43
2018-11-20T16:37:54.655Z,8.05
2018-11-20T16:40:40.811Z,7.10
2018-11-20T16:43:27.462Z,8.38
2018-11-20T16:46:20.816Z,7.30
2018-11-20T16:49:07.260Z,7.40
2018-11-20T16:51:53.709Z,7.00
2018-11-20T16:54:44.310Z,7.35
2018-11-20T16:57:26.728Z,7.00
2018-11-20T17:00:13.239Z,7.70
2018-11-20T17:02:51.354Z,6.85
2018-11-20T17:05:36.649Z,7.97
2018-11-20T17:08:28.962Z,7.10
2018-11-20T17:11:25.625Z,6.95
2018-11-20T17:14:13.209Z,7.33
2018-11-20T17:17:01.468Z,7.50
2018-11-20T17:19:54.952Z,7.40
2018-11-20T17:22:45.245Z,7.50
2018-11-20T17:25:32.765Z,6.72
2018-11-20T17:28:18.890Z,7.55
2018-11-20T17:31:05.352Z,8.15
2018-11-20T17:33:51.406Z,7.78
2018-11-20T17:36:37.817Z,7.90
2018-11-20T17:39:28.724Z,9.63
2018-11-20T17:42:19.051Z,9.33
2018-11-20T17:45:05.487Z,9.03
2018-11-20T17:47:53.027Z,10.20
2018-11-20T17:50:39.353Z,9.88
2018-11-20T17:53:18.814Z,9.50
2018-11-20T17:56:03.035Z,10.38
2018-11-20T17:58:53.495Z,9.23
2018-11-20T18:01:47.613Z,9.58
2018-11-20T18:04:26.808Z,9.65
2018-11-20T18:07:20.124Z,9.40
2018-11-20T18:10:19.691Z,10.08
2018-11-20T18:13:22.852Z,8.98
2018-11-20T18:16:09.087Z,8.88
2018-11-20T18:18:55.083Z,9.38
2018-11-20T18:21:48.791Z,8.78
2018-11-20T18:24:48.417Z,8.53
2018-11-20T18:27:27.397Z,9.28
2018-11-20T18:30:09.221Z,9.85
2018-11-20T18:32:56.100Z,9.75
2018-11-20T18:35:55.746Z,9.73
2018-11-20T18:38:32.190Z,9.13
2018-11-20T18:41:22.530Z,9.03
2018-11-20T18:44:14.530Z,9.13
2018-11-20T18:47:02.496Z,9.05
2018-11-20T18:49:46.940Z,8.55
2018-11-20T18:52:47.133Z,8.95
2018-11-20T18:55:35.691Z,9.30
2018-11-20T18:58:22.361Z,9.50
2018-11-20T19:01:17.593Z,8.65
2018-11-20T19:04:08.869Z,8.93
2018-11-20T19:06:54.987Z,8.55
2018-11-20T19:09:42.542Z,9.13
2018-11-20T19:12:29.082Z,8.60
2018-11-20T19:15:25.560Z,8.50
2018-11-20T19:18:16.252Z,8.53
2018-11-20T19:21:03.630Z,8.23
2018-11-20T19:23:55.543Z,8.60
2018-11-20T19:26:43.326Z,9.00
2018-11-20T19:29:28.960Z,9.18
2018-11-20T19:32:25.985Z,8.35
2018-11-20T19:35:09.315Z,7.90
2018-11-20T19:38:08.948Z,9.00
2018-11-20T19:41:02.399Z,8.05
2018-11-20T19:43:48.372Z,8.25
2018-11-20T19:46:35.845Z,8.28
2018-11-20T19:49:35.790Z,8.00
2018-11-20T19:52:19.902Z,8.43
2018-11-20T19:55:10.593Z,8.10
2018-11-20T19:57:54.533Z,8.35
2018-11-20T20:00:45.319Z,8.45
2018-11-20T20:03:44.737Z,8.08
2018-11-20T20:06:32.299Z,8.60
2018-11-20T20:09:19.561Z,7.97
2018-11-20T20:12:22.218Z,8.43
2018-11-20T20:15:15.435Z,8.25
2018-11-20T20:18:08.961Z,7.78
2018-11-20T20:20:55.184Z,7.95
2018-11-20T20:23:42.743Z,8.33
2018-11-20T20:26:36.282Z,8.23
2018-11-20T20:29:24.175Z,7.40
2018-11-20T20:32:17.534Z,8.20
2018-11-20T20:35:23.431Z,7.45
2018-11-20T20:38:13.977Z,8.40
2018-11-20T20:41:04.704Z,8.20
2018-11-20T20:43:51.637Z,7.25
2018-11-20T20:46:45.470Z,7.75
2018-11-20T20:49:32.746Z,7.75
2018-11-20T20:52:16.682Z,8.40
2018-11-20T20:55:06.872Z,7.50
2018-11-20T20:57:45.321Z,7.80
2018-11-20T21:00:32.525Z,8.33
2018-11-20T21:03:26.210Z,7.75
2018-11-20T21:06:31.642Z,7.45
2018-11-20T21:09:19.189Z,7.55
2018-11-20T21:11:58.797Z,7.15
2018-11-20T21:14:55.615Z,7.33
2018-11-20T21:17:43.154Z,7.87
2018-11-20T21:20:29.870Z,7.95
2018-11-20T21:23:23.113Z,7.72
2018-11-20T21:26:22.827Z,7.85
2018-11-20T21:29:04.249Z,7.97
2018-11-20T21:31:46.633Z,7.45
2018-11-20T21:34:41.040Z,8.28
2018-11-20T21:37:34.554Z,7.40
2018-11-20T21:40:31.086Z,7.20
2018-11-20T21:43:17.692Z,7.40
2018-11-20T21:46:07.960Z,7.10
2018-11-20T21:48:55.580Z,7.05
2018-11-20T21:51:58.569Z,7.47
2018-11-20T21:54:55.319Z,7.47
2018-11-20T21:57:36.086Z,7.42
2018-11-20T22:00:23.026Z,6.80
2018-11-20T22:03:07.987Z,7.67
2018-11-20T22:05:54.525Z,7.35
2018-11-20T22:08:42.072Z,7.22
2018-11-20T22:11:27.336Z,7.28
2018-11-20T22:14:27.345Z,7.28
2018-11-20T22:17:23.854Z,7.58
2018-11-20T22:20:11.381Z,7.75
2018-11-20T22:23:10.712Z,7.33
2018-11-20T22:26:03.755Z,7.55
2018-11-20T22:28:46.085Z,6.97
2018-11-20T22:31:32.545Z,7.40
2018-11-20T22:34:20.412Z,7.50
2018-11-20T22:37:17.034Z,7.72
2018-11-20T22:40:08.782Z,7.58
2018-11-20T22:43:07.560Z,7.53
2018-11-20T22:46:01.039Z,7.70
2018-11-20T22:49:00.853Z,7.85
2018-11-20T22:51:47.158Z,7.45
2018-11-20T22:54:36.619Z,7.20
2018-11-20T22:57:39.445Z,8.23
2018-11-20T23:00:28.765Z,7.65
2018-11-20T23:03:08.960Z,7.15
2018-11-20T23:06:04.356Z,7.00
2018-11-20T23:08:32.871Z,7.65
2018-11-20T23:11:01.255Z,7.40
2018-11-20T23:13:29.630Z,6.87
2018-11-20T23:15:58.160Z,6.62
2018-11-20T23:18:26.981Z,7.85
2018-11-20T23:20:55.447Z,8.18
2018-11-20T23:23:24.218Z,7.37
2018-11-20T23:25:52.576Z,7.72
2018-11-20T23:28:21.597Z,5.87
2018-11-20T23:30:50.009Z,7.90
2018-11-20T23:33:18.365Z,6.95
2018-11-20T23:35:46.723Z,7.92
2018-11-20T23:38:15.125Z,6.75
2018-11-20T23:40:43.473Z,7.05
2018-11-20T23:43:11.826Z,6.80
2018-11-20T23:45:40.223Z,7.85
2018-11-20T23:48:08.580Z,7.65
2018-11-20T23:50:37.116Z,6.42
2018-11-20T23:53:05.730Z,7.00
2018-11-20T23:55:34.096Z,7.53
2018-11-20T23:58:02.482Z,7.50
